Festina, Iowa
Current Conditions -  °F | °C
As of 9:15 PM on Saturday 20 Dec 2014 (Local Time) from KDEH Reporting Station
Haze Haze  
Wind Chill: 23°   Ceiling: 300
Heat Index: 30°   Visibility: 1.7mi
Dew Point: 30°   Wind: 7mph
Humidity: 100%   Direction: 160°SSE
Pressure: 30.13"   Gusts: 13mph
Location:  43.1257°N, 91.9025°W
Report Text: KDEH 210315Z AUTO 16006G11KT 1 3/4SM BR OVC003 M01/M01 A3013 RMK AO2
Loading
Personal Weather Stations






























Interactive Weather Map New forecast layout! Learn more

10-Day Weather Forecast

Advertisements
Track Severe Weather on mobile